Time;durP1;ratioP1;P1;durP2;ratioP2;P2;SDS_P1;SDS_P2;PMS_P1;PMS_P2;Temp;Humidity;BMP_temperature;BMP_pressure;BME280_temperature;BME280_humidity;BME280_pressure;Samples;Min_cycle;Max_cycle;Signal;HPM_P1;HPM_P2
2022/10/07 00:01:03;;;;;;;3.20;2.10;;;10.50;1.00;;;;;;5072639;28;20378;-71
2022/10/07 00:03:30;;;;;;;3.87;2.20;;;10.40;1.00;;;;;;5071460;28;20193;-74
2022/10/07 00:06:10;;;;;;;8.17;3.17;;;10.40;1.00;;;;;;5071794;28;20456;-69
2022/10/07 00:08:37;;;;;;;7.80;3.60;;;10.40;1.00;;;;;;5072096;28;20424;-70
2022/10/07 00:11:06;;;;;;;6.10;2.80;;;10.40;1.00;;;;;;5072500;28;20442;-72
2022/10/07 00:13:32;;;;;;;3.07;2.40;;;10.40;1.00;;;;;;5067423;28;20900;-74
2022/10/07 00:16:25;;;;;;;5.20;2.30;;;10.40;1.00;;;;;;5051545;28;20396;-72
2022/10/07 00:18:56;;;;;;;9.33;3.00;;;10.40;1.00;;;;;;5065435;28;20420;-69
2022/10/07 00:21:23;;;;;;;4.83;2.40;;;10.30;1.00;;;;;;5072589;28;20375;-72
2022/10/07 00:23:50;;;;;;;6.47;2.33;;;10.30;1.00;;;;;;5072166;28;20387;-68
2022/10/07 00:26:18;;;;;;;3.23;2.73;;;10.30;1.00;;;;;;5075537;28;20466;-73
2022/10/07 00:28:45;;;;;;;4.70;3.00;;;10.30;1.00;;;;;;5074843;28;20418;-68
2022/10/07 00:31:16;;;;;;;4.50;2.70;;;10.20;1.00;;;;;;5075567;28;20407;-68
2022/10/07 00:33:42;;;;;;;4.60;2.80;;;10.20;1.00;;;;;;5074978;28;20379;-72
2022/10/07 00:36:36;;;;;;;7.97;3.30;;;10.10;1.00;;;;;;5075634;28;20443;-69
2022/10/07 00:39:09;;;;;;;4.17;2.40;;;10.20;1.00;;;;;;5073577;28;20423;-73
2022/10/07 00:41:44;;;;;;;7.40;2.97;;;10.10;1.00;;;;;;5075431;28;20527;-70
2022/10/07 00:44:31;;;;;;;3.23;2.60;;;10.10;1.00;;;;;;5073997;28;20547;-68
2022/10/07 00:47:22;;;;;;;8.73;2.97;;;10.10;1.00;;;;;;5074134;28;20420;-68
2022/10/07 00:49:52;;;;;;;5.83;2.93;;;10.10;1.00;;;;;;5055532;28;20415;-68
2022/10/07 00:52:21;;;;;;;4.80;3.07;;;10.10;1.00;;;;;;5074135;28;20419;-72
2022/10/07 00:54:51;;;;;;;3.20;2.90;;;10.00;1.00;;;;;;5074391;28;20473;-72
2022/10/07 00:57:22;;;;;;;8.13;3.03;;;10.00;1.00;;;;;;5075380;28;20366;-68
2022/10/07 00:59:48;;;;;;;5.47;3.77;;;10.00;1.00;;;;;;5074458;28;20546;-72
2022/10/07 01:02:14;;;;;;;5.83;3.00;;;10.10;1.00;;;;;;5075172;28;20495;-73
2022/10/07 01:04:41;;;;;;;7.37;3.73;;;10.00;1.00;;;;;;5074084;28;21896;-73
2022/10/07 01:07:08;;;;;;;5.47;2.60;;;10.00;1.00;;;;;;5075155;28;20166;-72
2022/10/07 01:09:33;;;;;;;2.80;2.30;;;10.00;1.00;;;;;;5074935;28;20410;-72
2022/10/07 01:12:09;;;;;;;8.77;2.83;;;10.00;1.00;;;;;;5074898;28;20390;-67
2022/10/07 01:14:41;;;;;;;12.37;3.40;;;10.10;1.00;;;;;;5073881;28;20168;-69
2022/10/07 01:17:22;;;;;;;3.93;3.37;;;10.00;1.00;;;;;;5073081;28;20377;-73
2022/10/07 01:20:25;;;;;;;8.40;2.90;;;10.00;1.00;;;;;;5074740;28;20407;-72
2022/10/07 01:23:13;;;;;;;5.83;2.47;;;10.00;1.00;;;;;;5073698;28;20443;-71
2022/10/07 01:26:11;;;;;;;3.83;3.43;;;10.00;1.00;;;;;;5073504;28;20461;-72
2022/10/07 01:28:45;;;;;;;5.53;2.60;;;9.90;1.00;;;;;;5074806;28;20405;-72
2022/10/07 01:31:15;;;;;;;9.03;3.30;;;9.90;1.00;;;;;;5074433;28;20412;-69
2022/10/07 01:33:44;;;;;;;10.17;3.20;;;9.90;1.00;;;;;;5073448;28;20403;-73
2022/10/07 01:36:14;;;;;;;8.90;3.23;;;9.90;1.00;;;;;;5073831;28;20450;-72
2022/10/07 01:38:47;;;;;;;3.77;2.63;;;9.90;1.00;;;;;;5074617;28;20411;-73
2022/10/07 01:41:15;;;;;;;8.10;3.40;;;9.90;1.00;;;;;;5074249;28;20499;-69
2022/10/07 01:43:43;;;;;;;17.33;2.87;;;9.90;1.00;;;;;;5073491;28;20403;-72
2022/10/07 01:46:17;;;;;;;5.27;2.90;;;9.90;1.00;;;;;;5074186;28;20435;-72
2022/10/07 01:48:45;;;;;;;6.90;2.70;;;9.90;1.00;;;;;;5074464;28;20726;-72
2022/10/07 01:51:12;;;;;;;6.20;3.33;;;9.90;1.00;;;;;;5073786;28;20456;-69
2022/10/07 01:53:48;;;;;;;8.03;3.37;;;9.90;1.00;;;;;;5073428;28;20402;-74
2022/10/07 01:56:19;;;;;;;6.50;2.80;;;9.80;1.00;;;;;;5073496;28;20450;-69
2022/10/07 01:59:09;;;;;;;6.93;2.80;;;9.80;1.00;;;;;;5073034;28;20867;-68
2022/10/07 02:01:38;;;;;;;5.10;2.80;;;9.80;1.00;;;;;;5073766;28;20520;-69
2022/10/07 02:04:24;;;;;;;4.70;2.83;;;9.80;1.00;;;;;;5073243;28;20490;-73
2022/10/07 02:07:04;;;;;;;13.53;3.53;;;9.80;1.00;;;;;;5073694;28;20569;-68
2022/10/07 02:10:12;;;;;;;3.10;2.80;;;9.70;1.00;;;;;;5073787;28;20930;-72
2022/10/07 02:13:02;;;;;;;8.50;3.40;;;9.70;1.00;;;;;;5045254;28;20931;-71
2022/10/07 02:15:38;;;;;;;3.97;2.73;;;9.70;1.00;;;;;;5060209;28;20438;-73
2022/10/07 02:18:07;;;;;;;7.27;3.07;;;9.70;1.00;;;;;;5073907;28;20392;-67
2022/10/07 02:20:36;;;;;;;5.63;2.70;;;9.80;1.00;;;;;;5073453;28;20734;-73
2022/10/07 02:23:06;;;;;;;3.10;2.83;;;9.70;1.00;;;;;;5073761;28;20378;-73
2022/10/07 02:25:36;;;;;;;3.30;2.70;;;9.80;1.00;;;;;;5067749;28;20802;-73
2022/10/07 02:28:05;;;;;;;6.03;2.50;;;9.80;1.00;;;;;;5053728;28;20491;-68
2022/10/07 02:30:33;;;;;;;7.63;3.30;;;9.70;1.00;;;;;;5059380;28;20511;-68
2022/10/07 02:33:02;;;;;;;8.00;2.83;;;9.70;1.00;;;;;;5072994;28;20398;-72
2022/10/07 02:35:49;;;;;;;6.00;2.93;;;9.70;1.00;;;;;;5072408;28;20839;-72
2022/10/07 02:38:17;;;;;;;7.53;3.20;;;9.70;1.00;;;;;;5073385;28;20402;-68
2022/10/07 02:41:10;;;;;;;4.17;2.40;;;9.70;1.00;;;;;;5073226;28;20509;-72
2022/10/07 02:43:55;;;;;;;4.10;2.47;;;9.70;1.00;;;;;;5071287;28;20483;-72
2022/10/07 02:46:29;;;;;;;4.47;3.70;;;9.70;1.00;;;;;;5071114;28;20485;-68
2022/10/07 02:48:59;;;;;;;3.93;2.70;;;9.70;1.00;;;;;;5072016;28;20390;-73
2022/10/07 02:51:32;;;;;;;3.83;2.40;;;9.70;1.00;;;;;;5072896;28;20407;-72
2022/10/07 02:54:02;;;;;;;5.50;4.33;;;9.70;1.00;;;;;;5072128;28;20503;-67
2022/10/07 02:56:31;;;;;;;3.17;2.93;;;9.70;1.00;;;;;;5071602;28;20416;-68
2022/10/07 02:59:00;;;;;;;3.63;3.33;;;9.60;1.00;;;;;;5073143;28;20403;-68
2022/10/07 03:01:33;;;;;;;5.10;3.20;;;9.60;1.00;;;;;;5073157;28;20395;-72
2022/10/07 03:03:59;;;;;;;3.17;2.87;;;9.60;1.00;;;;;;5072055;28;20817;-69
2022/10/07 03:06:28;;;;;;;3.90;3.17;;;9.60;1.00;;;;;;5072547;28;20485;-73
2022/10/07 03:08:56;;;;;;;4.23;2.50;;;9.60;1.00;;;;;;5072548;28;20857;-69
2022/10/07 03:11:23;;;;;;;3.07;2.77;;;9.50;1.00;;;;;;5072890;28;20425;-68
2022/10/07 03:13:48;;;;;;;13.23;3.73;;;9.50;1.00;;;;;;5072055;28;20401;-68
2022/10/07 03:16:14;;;;;;;20.43;4.87;;;9.50;1.00;;;;;;5072604;28;20427;-69
2022/10/07 03:18:40;;;;;;;4.60;3.30;;;9.50;1.00;;;;;;5073115;28;20247;-72
2022/10/07 03:21:06;;;;;;;6.00;4.37;;;9.50;1.00;;;;;;5072550;28;20176;-71
2022/10/07 03:23:32;;;;;;;3.50;3.20;;;9.40;1.00;;;;;;5072601;28;20598;-72
2022/10/07 03:25:58;;;;;;;19.77;4.43;;;9.40;1.00;;;;;;5071779;28;20492;-73
2022/10/07 03:28:26;;;;;;;9.97;3.90;;;9.40;1.00;;;;;;5072248;28;20527;-69
2022/10/07 03:30:52;;;;;;;10.57;4.53;;;9.40;1.00;;;;;;5072651;28;20403;-71
2022/10/07 03:33:20;;;;;;;6.63;4.20;;;9.40;1.00;;;;;;5072900;28;20402;-72
2022/10/07 03:35:45;;;;;;;12.90;3.83;;;9.30;1.00;;;;;;5071785;28;20414;-68
2022/10/07 03:38:11;;;;;;;9.07;3.70;;;9.30;1.00;;;;;;5072802;28;20467;-69
2022/10/07 03:40:37;;;;;;;7.83;4.30;;;9.20;1.00;;;;;;5072537;28;20198;-72
2022/10/07 03:43:04;;;;;;;5.87;3.90;;;9.30;1.00;;;;;;5072747;28;20481;-68
2022/10/07 03:45:30;;;;;;;4.60;4.10;;;9.30;1.00;;;;;;5071013;28;20845;-71
2022/10/07 03:47:57;;;;;;;8.07;4.60;;;9.30;1.00;;;;;;5072719;28;20489;-73
2022/10/07 03:50:23;;;;;;;16.23;4.20;;;9.20;1.00;;;;;;5071030;28;20400;-68
2022/10/07 03:52:49;;;;;;;7.23;4.63;;;9.20;1.00;;;;;;5072871;28;20441;-72
2022/10/07 03:55:15;;;;;;;5.90;3.97;;;9.20;1.00;;;;;;5071643;28;20466;-68
2022/10/07 03:57:51;;;;;;;6.50;4.70;;;9.20;1.00;;;;;;5073512;28;20170;-68
2022/10/07 04:00:19;;;;;;;10.13;4.80;;;9.20;1.00;;;;;;5076483;28;20402;-71
2022/10/07 04:02:46;;;;;;;9.60;6.70;;;9.30;1.00;;;;;;5075897;28;20439;-68
2022/10/07 04:05:14;;;;;;;4.57;4.10;;;9.30;1.00;;;;;;5074978;28;20436;-68
2022/10/07 04:07:43;;;;;;;9.50;4.37;;;9.30;1.00;;;;;;5075917;28;20420;-68
2022/10/07 04:10:10;;;;;;;4.30;3.90;;;9.30;1.00;;;;;;5076365;28;20396;-72
2022/10/07 04:12:36;;;;;;;8.70;5.93;;;9.30;1.00;;;;;;5075953;28;20953;-68
2022/10/07 04:15:03;;;;;;;13.13;4.67;;;9.30;1.00;;;;;;5075263;28;20527;-73
2022/10/07 04:17:28;;;;;;;7.63;4.60;;;9.30;1.00;;;;;;5071637;28;20431;-68
2022/10/07 04:19:54;;;;;;;7.90;4.50;;;9.30;1.00;;;;;;5056155;28;20406;-72
2022/10/07 04:22:20;;;;;;;7.80;5.87;;;9.30;1.00;;;;;;5068849;28;20689;-73
2022/10/07 04:25:32;;;;;;;9.50;4.60;;;9.30;1.00;;;;;;5074978;28;20203;-68
2022/10/07 04:27:32;;;;;;;10.53;4.70;;;9.30;1.00;;;;;;5075380;28;20632;-72
2022/10/07 04:29:57;;;;;;;8.33;4.60;;;9.30;1.00;;;;;;5075981;28;20404;-68
2022/10/07 04:32:23;;;;;;;6.63;4.90;;;9.30;1.00;;;;;;5075524;28;20414;-69
2022/10/07 04:34:51;;;;;;;7.93;5.60;;;9.30;1.00;;;;;;5074881;28;20188;-68
2022/10/07 04:37:18;;;;;;;16.23;6.00;;;9.30;1.00;;;;;;5075568;28;20575;-73
2022/10/07 04:39:43;;;;;;;9.93;5.07;;;9.20;1.00;;;;;;5074858;28;20420;-73
2022/10/07 04:43:17;;;;;;;6.90;4.83;;;9.20;1.00;;;;;;5071352;28;20951;-72
2022/10/07 04:44:55;;;;;;;6.43;5.10;;;9.30;1.00;;;;;;5066624;28;20210;-71
2022/10/07 04:47:20;;;;;;;6.00;4.80;;;9.30;1.00;;;;;;5075667;28;20484;-73
2022/10/07 04:49:47;;;;;;;8.00;5.37;;;9.30;1.00;;;;;;5075258;28;20641;-68
2022/10/07 04:52:12;;;;;;;5.90;5.33;;;9.20;1.00;;;;;;5075571;28;20623;-73
2022/10/07 04:54:38;;;;;;;9.23;4.60;;;9.30;1.00;;;;;;5074220;28;20515;-73
2022/10/07 04:57:04;;;;;;;11.20;5.40;;;9.30;1.00;;;;;;5074762;28;20201;-73
2022/10/07 04:59:30;;;;;;;8.80;6.43;;;9.20;1.00;;;;;;5075421;28;20184;-73
2022/10/07 05:01:56;;;;;;;8.77;5.40;;;9.20;1.00;;;;;;5074217;28;20388;-69
2022/10/07 05:04:21;;;;;;;7.43;5.10;;;9.20;1.00;;;;;;5074087;28;20453;-68
2022/10/07 05:06:47;;;;;;;9.80;4.90;;;9.20;1.00;;;;;;5075202;28;20195;-73
2022/10/07 05:09:13;;;;;;;5.77;4.30;;;9.30;1.00;;;;;;5074664;28;20173;-68
2022/10/07 05:11:38;;;;;;;5.47;4.97;;;9.30;1.00;;;;;;5075174;28;20567;-69
2022/10/07 05:14:04;;;;;;;6.10;4.83;;;9.30;1.00;;;;;;5073470;28;20210;-69
2022/10/07 05:16:30;;;;;;;10.27;5.77;;;9.30;1.00;;;;;;5073706;28;20609;-72
2022/10/07 05:18:56;;;;;;;7.33;5.03;;;9.20;1.00;;;;;;5074944;28;20183;-71
2022/10/07 05:21:21;;;;;;;7.63;4.80;;;9.30;1.00;;;;;;5074841;28;20240;-73
2022/10/07 05:23:47;;;;;;;11.97;5.10;;;9.30;1.00;;;;;;5073945;28;20507;-68
2022/10/07 05:26:14;;;;;;;7.83;5.13;;;9.20;1.00;;;;;;5074565;28;20229;-69
2022/10/07 05:28:41;;;;;;;10.50;6.57;;;9.30;1.00;;;;;;5074854;28;20160;-73
2022/10/07 05:31:11;;;;;;;7.67;4.57;;;9.20;1.00;;;;;;5073733;28;20464;-69
2022/10/07 05:33:37;;;;;;;5.27;4.47;;;9.20;1.00;;;;;;5072711;28;20410;-75
2022/10/07 05:36:05;;;;;;;9.00;4.43;;;9.30;1.00;;;;;;5073220;28;20429;-72
2022/10/07 05:38:32;;;;;;;7.13;5.33;;;9.30;1.00;;;;;;5074706;28;20485;-72
2022/10/07 05:41:00;;;;;;;8.80;5.37;;;9.30;1.00;;;;;;5074127;28;20547;-74
2022/10/07 05:43:27;;;;;;;8.60;4.20;;;9.30;1.00;;;;;;5074276;28;20878;-71
2022/10/07 05:45:59;;;;;;;8.87;4.77;;;9.20;1.00;;;;;;5073447;28;20558;-75
2022/10/07 05:48:25;;;;;;;9.87;4.60;;;9.30;1.00;;;;;;5074544;28;20393;-74
2022/10/07 05:50:50;;;;;;;5.77;4.33;;;9.30;1.00;;;;;;5073356;28;20990;-75
2022/10/07 05:53:16;;;;;;;23.13;4.70;;;9.30;1.00;;;;;;5074254;28;20639;-72
2022/10/07 05:55:42;;;;;;;6.13;4.50;;;9.40;1.00;;;;;;5073052;28;20656;-72
2022/10/07 05:58:07;;;;;;;10.47;4.80;;;9.40;1.00;;;;;;5074349;28;20258;-67
2022/10/07 06:00:34;;;;;;;8.50;3.73;;;9.40;1.00;;;;;;5073929;28;20179;-67
2022/10/07 06:03:01;;;;;;;6.80;4.60;;;9.40;1.00;;;;;;5074069;28;20181;-72
2022/10/07 06:05:31;;;;;;;7.30;4.50;;;9.40;1.00;;;;;;5072807;28;20482;-72
2022/10/07 06:07:56;;;;;;;4.10;3.80;;;9.40;1.00;;;;;;5072148;28;20414;-73
2022/10/07 06:13:07;;;;;;;14.93;3.50;;;9.40;1.00;;;;;;5073954;28;20167;-72
2022/10/07 06:15:34;;;;;;;4.07;3.67;;;9.40;1.00;;;;;;5072485;28;20435;-72
2022/10/07 06:17:59;;;;;;;4.10;3.70;;;9.40;1.00;;;;;;5073934;28;20391;-68
2022/10/07 06:20:25;;;;;;;9.20;3.73;;;9.40;1.00;;;;;;5072987;28;20777;-73
2022/10/07 06:22:54;;;;;;;8.37;3.70;;;9.50;1.00;;;;;;5073562;28;20527;-70
2022/10/07 06:25:20;;;;;;;9.30;4.47;;;9.50;1.00;;;;;;5072313;28;20204;-72
2022/10/07 06:27:46;;;;;;;5.07;3.13;;;9.50;1.00;;;;;;5072940;28;20415;-67
2022/10/07 06:30:12;;;;;;;7.50;3.13;;;9.50;1.00;;;;;;5073515;28;20494;-70
2022/10/07 06:32:37;;;;;;;3.90;3.33;;;9.50;1.00;;;;;;5073573;28;20177;-67
2022/10/07 06:35:04;;;;;;;3.83;3.10;;;9.50;1.00;;;;;;5072251;28;20440;-73
2022/10/07 06:37:31;;;;;;;4.70;4.27;;;9.50;1.00;;;;;;5073505;28;20180;-69
2022/10/07 06:39:57;;;;;;;8.13;3.53;;;9.50;1.00;;;;;;5071770;28;20508;-69
2022/10/07 06:42:22;;;;;;;7.60;3.20;;;9.50;1.00;;;;;;5073466;28;20491;-68
2022/10/07 06:44:48;;;;;;;4.80;2.80;;;9.60;1.00;;;;;;5072082;28;20431;-73
2022/10/07 06:47:14;;;;;;;7.17;3.70;;;9.60;1.00;;;;;;5071652;28;20207;-68
2022/10/07 06:49:40;;;;;;;10.23;3.77;;;9.60;1.00;;;;;;5073002;28;20966;-74
2022/10/07 06:52:05;;;;;;;11.03;3.83;;;9.70;1.00;;;;;;5073053;28;20777;-68
2022/10/07 06:54:31;;;;;;;4.90;3.60;;;9.80;1.00;;;;;;5072162;28;20177;-76
2022/10/07 06:56:57;;;;;;;3.13;2.80;;;9.80;1.00;;;;;;5072964;28;20274;-73
2022/10/07 06:59:22;;;;;;;6.73;3.50;;;9.80;1.00;;;;;;5073421;28;20178;-73
2022/10/07 07:01:48;;;;;;;8.23;3.87;;;9.80;1.00;;;;;;5072048;28;20184;-73
2022/10/07 07:04:13;;;;;;;4.70;3.27;;;9.90;1.00;;;;;;5071495;28;20208;-69
2022/10/07 07:06:39;;;;;;;13.30;3.40;;;9.90;1.00;;;;;;5072824;28;20218;-70
2022/10/07 07:09:05;;;;;;;4.00;3.50;;;10.00;1.00;;;;;;5073030;28;20248;-69
2022/10/07 07:11:39;;;;;;;4.60;3.07;;;10.00;1.00;;;;;;5073251;28;20252;-72
2022/10/07 07:14:06;;;;;;;7.30;3.40;;;10.00;1.00;;;;;;5071146;28;20183;-69
2022/10/07 07:16:32;;;;;;;4.63;3.10;;;10.10;1.00;;;;;;5072939;28;20453;-74
2022/10/07 07:19:04;;;;;;;3.43;2.97;;;10.20;1.00;;;;;;5073051;28;20458;-70
2022/10/07 07:21:32;;;;;;;6.30;3.90;;;10.30;1.00;;;;;;5073075;28;20373;-74
2022/10/07 07:23:58;;;;;;;17.47;3.30;;;10.30;1.00;;;;;;5072005;28;20460;-68
2022/10/07 07:26:26;;;;;;;10.60;4.30;;;10.50;1.00;;;;;;5072306;28;20405;-69
2022/10/07 07:28:58;;;;;;;5.97;3.57;;;10.60;1.00;;;;;;5073251;28;20374;-72
2022/10/07 07:31:25;;;;;;;11.83;3.53;;;10.60;1.00;;;;;;5073085;28;20408;-70
2022/10/07 07:33:51;;;;;;;12.50;3.30;;;10.70;1.00;;;;;;5075780;28;20417;-72
2022/10/07 07:36:21;;;;;;;11.20;2.83;;;10.80;1.00;;;;;;5076809;28;20395;-69
2022/10/07 07:38:59;;;;;;;8.27;2.83;;;10.90;1.00;;;;;;5077082;28;20375;-74
2022/10/07 07:41:27;;;;;;;2.70;2.50;;;10.90;1.00;;;;;;5075278;28;21014;-74
2022/10/07 07:43:55;;;;;;;3.53;2.90;;;11.00;1.00;;;;;;5076094;28;20409;-73
2022/10/07 07:46:23;;;;;;;6.30;3.03;;;11.10;1.00;;;;;;5076616;28;20562;-74
2022/10/07 07:48:50;;;;;;;9.90;3.57;;;11.20;1.00;;;;;;5076859;28;20446;-73
2022/10/07 07:51:17;;;;;;;6.83;2.67;;;11.30;1.00;;;;;;5076729;28;20390;-69
2022/10/07 07:53:43;;;;;;;5.97;3.00;;;11.40;1.00;;;;;;5076063;28;20383;-69
2022/10/07 07:56:10;;;;;;;6.50;3.30;;;11.50;1.00;;;;;;5075470;28;20473;-69
2022/10/07 07:58:36;;;;;;;6.00;3.53;;;11.60;1.00;;;;;;5076548;28;20412;-74
2022/10/07 08:01:08;;;;;;;6.00;2.70;;;11.60;1.00;;;;;;5075827;28;20800;-73
2022/10/07 08:03:37;;;;;;;3.53;3.00;;;11.70;1.00;;;;;;5076272;28;20900;-74
2022/10/07 08:06:06;;;;;;;3.43;2.70;;;11.70;1.00;;;;;;5076395;28;20994;-69
2022/10/07 08:08:33;;;;;;;6.30;3.07;;;11.80;1.00;;;;;;5076297;28;20371;-73
2022/10/07 08:11:19;;;;;;;10.73;3.90;;;12.00;1.00;;;;;;5076335;28;20399;-73
2022/10/07 08:13:45;;;;;;;7.80;2.83;;;12.10;1.00;;;;;;5075462;28;20408;-69
2022/10/07 08:16:13;;;;;;;4.20;3.40;;;12.20;1.00;;;;;;5076159;28;20748;-69
2022/10/07 08:18:40;;;;;;;8.93;2.83;;;12.30;1.00;;;;;;5075637;28;20386;-74
2022/10/07 08:21:07;;;;;;;5.67;3.13;;;12.40;1.00;;;;;;5076069;28;20405;-73
2022/10/07 08:23:34;;;;;;;5.27;2.70;;;12.40;1.00;;;;;;5075904;28;20795;-72
2022/10/07 08:26:00;;;;;;;12.07;2.77;;;12.50;1.00;;;;;;5075108;28;20619;-72
2022/10/07 08:28:27;;;;;;;4.13;2.50;;;12.50;1.00;;;;;;5075848;28;20414;-71
2022/10/07 08:30:53;;;;;;;11.37;3.10;;;12.60;1.00;;;;;;5075576;28;20378;-72
2022/10/07 08:33:20;;;;;;;8.40;3.10;;;12.70;1.00;;;;;;5075735;28;20386;-71
2022/10/07 08:35:59;;;;;;;13.93;3.67;;;12.90;1.00;;;;;;5074135;28;20759;-74
2022/10/07 08:38:32;;;;;;;6.23;2.93;;;12.90;1.00;;;;;;5074595;28;20879;-73
2022/10/07 08:41:08;;;;;;;8.93;3.57;;;13.00;1.00;;;;;;5074567;28;20761;-70
2022/10/07 08:43:39;;;;;;;6.37;2.97;;;13.00;1.00;;;;;;5074329;28;20375;-73
2022/10/07 08:46:11;;;;;;;7.30;4.30;;;13.10;1.00;;;;;;5074284;28;20466;-74
2022/10/07 08:48:39;;;;;;;5.97;2.80;;;13.30;1.00;;;;;;5075343;28;20383;-75
2022/10/07 08:51:33;;;;;;;9.20;3.30;;;13.40;1.00;;;;;;5075607;28;20452;-71
2022/10/07 08:53:59;;;;;;;12.70;3.23;;;13.50;1.00;;;;;;5074175;28;20406;-70
2022/10/07 08:56:28;;;;;;;8.60;4.43;;;13.60;1.00;;;;;;5090724;28;20440;-72
2022/10/07 08:59:05;;;;;;;13.63;3.60;;;13.80;1.00;;;;;;5072312;28;20748;-73
2022/10/07 09:01:34;;;;;;;9.47;3.23;;;13.90;1.00;;;;;;5071060;28;20431;-73
2022/10/07 09:04:02;;;;;;;10.00;3.40;;;14.00;1.00;;;;;;5057013;28;20442;-71
2022/10/07 09:06:46;;;;;;;15.00;3.90;;;14.10;1.00;;;;;;5075222;28;20864;-71
2022/10/07 09:09:21;;;;;;;6.53;2.97;;;14.20;1.00;;;;;;5073089;28;20434;-71
2022/10/07 09:11:48;;;;;;;8.73;3.40;;;14.40;1.00;;;;;;5075166;28;20773;-74
2022/10/07 09:14:23;;;;;;;6.20;3.40;;;14.50;1.00;;;;;;5072160;28;20439;-73
2022/10/07 09:16:50;;;;;;;8.10;2.90;;;14.70;1.00;;;;;;5074894;28;20882;-73
2022/10/07 09:19:38;;;;;;;15.70;3.23;;;14.80;1.00;;;;;;5074873;28;20406;-72
2022/10/07 09:22:28;;;;;;;10.40;4.23;;;14.80;1.00;;;;;;5075140;28;20401;-69
2022/10/07 09:25:17;;;;;;;10.50;5.10;;;15.10;1.00;;;;;;5071781;28;20464;-73
2022/10/07 09:27:43;;;;;;;10.90;3.40;;;15.10;1.00;;;;;;5060737;28;20425;-68
2022/10/07 09:30:13;;;;;;;5.43;3.20;;;15.30;1.00;;;;;;5073879;28;20485;-69
2022/10/07 09:32:43;;;;;;;9.50;2.83;;;15.70;1.00;;;;;;5076151;28;20186;-69
2022/10/07 09:35:18;;;;;;;8.63;3.70;;;15.90;1.00;;;;;;5077883;28;20452;-70
2022/10/07 09:37:54;;;;;;;8.67;3.50;;;16.00;1.00;;;;;;5074643;28;20427;-69
2022/10/07 09:43:27;;;;;;;4.73;2.10;;;15.90;1.00;;;;;;5074235;28;20465;-74
2022/10/07 09:45:55;;;;;;;8.13;3.40;;;16.00;1.00;;;;;;5073789;28;20466;-69
2022/10/07 09:48:24;;;;;;;19.90;4.10;;;16.20;1.00;;;;;;5074231;28;20499;-72
2022/10/07 09:50:50;;;;;;;8.33;3.03;;;16.30;1.00;;;;;;5074472;28;20407;-72
2022/10/07 09:53:19;;;;;;;7.10;2.80;;;16.30;1.00;;;;;;5073480;28;20433;-71
2022/10/07 09:55:45;;;;;;;8.27;3.30;;;16.40;1.00;;;;;;5073281;28;20195;-74
2022/10/07 09:58:23;;;;;;;7.00;3.00;;;16.50;1.00;;;;;;5072844;28;20448;-70
2022/10/07 10:00:52;;;;;;;9.30;3.13;;;16.60;1.00;;;;;;5074243;28;20432;-70
2022/10/07 10:03:19;;;;;;;12.90;3.50;;;16.60;1.00;;;;;;5073661;28;20503;-71
2022/10/07 10:05:57;;;;;;;7.60;3.07;;;16.80;1.00;;;;;;5073188;28;20466;-70
2022/10/07 10:08:30;;;;;;;8.90;3.50;;;17.00;1.00;;;;;;5073814;28;20393;-70
2022/10/07 10:10:58;;;;;;;11.03;3.50;;;17.20;1.00;;;;;;5073507;28;20445;-71
2022/10/07 10:13:39;;;;;;;7.80;2.63;;;17.40;1.00;;;;;;5073433;28;20372;-72
2022/10/07 10:16:27;;;;;;;13.10;3.10;;;17.40;1.00;;;;;;5073839;28;20420;-71
2022/10/07 10:18:55;;;;;;;8.93;3.10;;;17.60;1.00;;;;;;5073798;28;20570;-71
2022/10/07 10:21:21;;;;;;;4.63;2.60;;;18.00;1.00;;;;;;5073725;28;20440;-70
2022/10/07 10:23:50;;;;;;;8.40;3.13;;;18.10;1.00;;;;;;5072637;28;20994;-72
2022/10/07 10:26:55;;;;;;;12.97;3.20;;;18.20;1.00;;;;;;5073684;28;20209;-70
2022/10/07 10:29:30;;;;;;;6.73;2.50;;;18.30;1.00;;;;;;5068002;28;20581;-73
2022/10/07 10:32:27;;;;;;;6.23;2.73;;;18.00;1.00;;;;;;5072555;28;20508;-71
2022/10/07 10:35:05;;;;;;;6.80;2.47;;;17.70;1.00;;;;;;5058043;28;20479;-72
2022/10/07 10:37:40;;;;;;;10.80;3.00;;;17.20;1.00;;;;;;5053529;28;20413;-70
2022/10/07 10:40:24;;;;;;;6.60;4.20;;;16.90;1.00;;;;;;5066156;28;20515;-72
2022/10/07 10:43:21;;;;;;;8.97;2.43;;;16.70;1.00;;;;;;5073462;28;20423;-73
2022/10/07 10:46:05;;;;;;;9.27;2.90;;;16.60;1.00;;;;;;5042914;28;20476;-73
2022/10/07 10:48:43;;;;;;;4.73;3.57;;;16.70;1.00;;;;;;5055046;28;20444;-72
2022/10/07 10:51:34;;;;;;;8.60;3.13;;;16.80;1.00;;;;;;5073399;28;20403;-70
2022/10/07 10:53:59;;;;;;;6.90;2.80;;;16.70;1.00;;;;;;5071915;28;20423;-73
2022/10/07 10:56:37;;;;;;;7.87;3.60;;;16.70;1.00;;;;;;5071872;28;20417;-73
2022/10/07 10:59:33;;;;;;;9.10;3.07;;;16.70;1.00;;;;;;5073324;28;20249;-73
2022/10/07 11:02:39;;;;;;;10.53;3.07;;;16.80;1.00;;;;;;5072797;28;20404;-72
2022/10/07 11:05:23;;;;;;;6.10;2.57;;;16.80;1.00;;;;;;5071812;28;20452;-73
2022/10/07 11:08:10;;;;;;;10.00;2.97;;;16.70;1.00;;;;;;5072124;28;20416;-72
2022/10/07 11:10:40;;;;;;;10.40;3.07;;;16.60;1.00;;;;;;5073028;28;20375;-71
2022/10/07 11:13:13;;;;;;;5.07;2.20;;;16.70;1.00;;;;;;5072916;28;20503;-72
2022/10/07 11:15:44;;;;;;;9.27;2.20;;;16.80;1.00;;;;;;5072156;28;20452;-73
2022/10/07 11:18:44;;;;;;;11.43;2.80;;;17.00;1.00;;;;;;5071668;28;20391;-71
2022/10/07 11:21:17;;;;;;;11.67;2.50;;;17.00;1.00;;;;;;5054069;28;20416;-72
2022/10/07 11:24:25;;;;;;;9.63;2.90;;;17.00;1.00;;;;;;5067101;28;20483;-73
2022/10/07 11:26:57;;;;;;;3.80;2.40;;;17.00;1.00;;;;;;5037209;28;20444;-70
2022/10/07 11:29:47;;;;;;;6.50;2.03;;;17.10;1.00;;;;;;5072896;28;20408;-72
2022/10/07 11:32:34;;;;;;;5.47;1.93;;;17.10;1.00;;;;;;5072713;28;20416;-73
2022/10/07 11:35:22;;;;;;;4.57;2.13;;;17.30;1.00;;;;;;5071979;28;20443;-70
2022/10/07 11:38:06;;;;;;;3.53;2.03;;;17.40;1.00;;;;;;5072461;28;20413;-72
2022/10/07 11:40:39;;;;;;;6.00;2.07;;;17.40;1.00;;;;;;5072750;28;20814;-71
2022/10/07 11:43:12;;;;;;;8.53;2.23;;;17.40;1.00;;;;;;5071987;28;20419;-71
2022/10/07 11:45:48;;;;;;;15.27;3.70;;;17.20;1.00;;;;;;5071844;28;20523;-73
2022/10/07 11:48:20;;;;;;;9.73;2.83;;;17.10;1.00;;;;;;5072515;28;20918;-74
2022/10/07 11:50:54;;;;;;;5.60;2.73;;;17.20;1.00;;;;;;5072782;28;20395;-72
2022/10/07 11:53:25;;;;;;;9.87;2.20;;;17.00;1.00;;;;;;5072211;28;20470;-73
2022/10/07 11:55:59;;;;;;;10.23;2.33;;;16.90;1.00;;;;;;5071934;28;20429;-71
2022/10/07 11:58:31;;;;;;;5.17;2.20;;;17.10;1.00;;;;;;5072111;28;20419;-73
2022/10/07 12:01:34;;;;;;;11.30;2.40;;;17.30;1.00;;;;;;5072264;28;20424;-71
2022/10/07 12:04:44;;;;;;;9.30;2.23;;;17.50;1.00;;;;;;5029352;28;20533;-72
2022/10/07 12:07:35;;;;;;;4.37;2.10;;;17.70;1.00;;;;;;5056029;28;20440;-71
2022/10/07 12:10:01;;;;;;;13.27;2.60;;;17.80;1.00;;;;;;5070437;28;20511;-74
2022/10/07 12:12:45;;;;;;;7.40;2.70;;;17.90;1.00;;;;;;5072373;28;20508;-71
2022/10/07 12:15:29;;;;;;;7.07;2.90;;;18.00;1.00;;;;;;5071203;28;20194;-71
2022/10/07 12:18:03;;;;;;;5.10;3.27;;;18.00;1.00;;;;;;5072296;28;20435;-72
2022/10/07 12:20:41;;;;;;;5.27;2.80;;;18.50;1.00;;;;;;5075728;28;20473;-71
2022/10/07 12:23:24;;;;;;;8.97;2.60;;;19.00;1.00;;;;;;5076142;28;20415;-71
2022/10/07 12:25:57;;;;;;;10.77;2.60;;;19.30;1.00;;;;;;5074842;28;20516;-71
2022/10/07 12:28:26;;;;;;;8.10;2.43;;;19.10;1.00;;;;;;5075905;28;20877;-73
2022/10/07 12:30:54;;;;;;;8.83;2.30;;;19.10;1.00;;;;;;5075759;28;20912;-73
2022/10/07 12:33:45;;;;;;;9.70;2.00;;;19.60;1.00;;;;;;5075316;28;20396;-72
2022/10/07 12:36:28;;;;;;;5.13;1.87;;;20.00;1.00;;;;;;5075778;28;20420;-72
2022/10/07 12:38:59;;;;;;;13.03;2.40;;;20.40;1.00;;;;;;5075114;28;20935;-74
2022/10/07 12:41:42;;;;;;;10.53;2.33;;;20.80;1.00;;;;;;5075782;28;20401;-73
2022/10/07 12:44:09;;;;;;;7.83;2.17;;;21.30;1.00;;;;;;5074491;28;20423;-72
2022/10/07 12:46:49;;;;;;;5.13;2.20;;;21.90;1.00;;;;;;5075497;28;20424;-70
2022/10/07 12:49:40;;;;;;;10.70;2.80;;;21.50;1.00;;;;;;5075479;28;20416;-73
2022/10/07 12:52:26;;;;;;;3.70;1.70;;;20.80;1.00;;;;;;5075651;28;20499;-70
2022/10/07 12:55:06;;;;;;;8.93;2.77;;;20.00;1.00;;;;;;5073816;28;20416;-73
2022/10/07 12:57:36;;;;;;;5.03;2.20;;;19.90;1.00;;;;;;5067597;28;20424;-71
2022/10/07 13:00:14;;;;;;;7.50;2.10;;;19.90;1.00;;;;;;5065959;28;20453;-72
2022/10/07 13:03:22;;;;;;;7.93;2.07;;;20.20;1.00;;;;;;5068139;28;20510;-71
2022/10/07 13:05:56;;;;;;;3.43;1.87;;;20.10;1.00;;;;;;5072581;28;20539;-70
2022/10/07 13:08:43;;;;;;;6.43;2.87;;;19.70;1.00;;;;;;5075184;28;20895;-73
2022/10/07 13:11:24;;;;;;;8.10;2.47;;;19.00;1.00;;;;;;5070907;28;20412;-72
2022/10/07 13:14:19;;;;;;;8.07;2.53;;;18.70;1.00;;;;;;5066791;28;20470;-72
2022/10/07 13:17:05;;;;;;;3.90;2.07;;;18.50;1.00;;;;;;5066677;28;20797;-73
2022/10/07 13:19:58;;;;;;;14.53;1.80;;;18.50;1.00;;;;;;5065407;28;20447;-73
2022/10/07 13:22:25;;;;;;;8.00;2.23;;;19.40;1.00;;;;;;5064454;28;20421;-71
2022/10/07 13:24:54;;;;;;;7.23;2.13;;;20.10;1.00;;;;;;5072446;28;20455;-70
2022/10/07 13:27:28;;;;;;;5.17;1.93;;;21.00;1.00;;;;;;5072720;28;20925;-70
2022/10/07 13:29:56;;;;;;;5.90;1.93;;;21.60;1.00;;;;;;5065744;28;20463;-70
2022/10/07 13:32:33;;;;;;;1.90;1.30;;;21.30;1.00;;;;;;5071413;28;20421;-70
2022/10/07 13:35:18;;;;;;;10.20;2.20;;;21.00;1.00;;;;;;5070887;28;20526;-72